Time;durP1;ratioP1;P1;durP2;ratioP2;P2;SDS_P1;SDS_P2;PMS_P1;PMS_P2;Temp;Humidity;BMP_temperature;BMP_pressure;BME280_temperature;BME280_humidity;BME280_pressure;Samples;Min_cycle;Max_cycle;Signal;HPM_P1;HPM_P2
2022/08/19 00:01:06;;;;;;;17.52;13.20;;;21.00;1.00;;;;;;7360334;19;20075;-70
2022/08/19 00:03:36;;;;;;;14.75;13.15;;;21.00;1.00;;;;;;7361160;19;20465;-69
2022/08/19 00:06:06;;;;;;;16.20;13.85;;;21.00;1.00;;;;;;7381686;19;20014;-69
2022/08/19 00:08:38;;;;;;;15.80;13.77;;;21.00;1.00;;;;;;7356464;19;20098;-69
2022/08/19 00:11:12;;;;;;;17.88;13.18;;;21.10;1.00;;;;;;7358851;19;20110;-69
2022/08/19 00:13:54;;;;;;;15.73;13.02;;;21.00;1.00;;;;;;7360910;19;20011;-69
2022/08/19 00:16:26;;;;;;;16.30;13.52;;;21.00;1.00;;;;;;7357287;19;20498;-70
2022/08/19 00:18:56;;;;;;;16.50;13.68;;;21.00;1.00;;;;;;7360170;19;20015;-69
2022/08/19 00:21:27;;;;;;;16.85;13.50;;;20.90;1.00;;;;;;7359382;19;20077;-70
2022/08/19 00:24:00;;;;;;;15.23;13.38;;;20.90;1.00;;;;;;7389609;19;20015;-69
2022/08/19 00:26:31;;;;;;;16.05;13.32;;;21.00;1.00;;;;;;7363321;19;20121;-70
2022/08/19 00:29:01;;;;;;;16.40;14.38;;;21.00;1.00;;;;;;7369617;19;20014;-70
2022/08/19 00:31:31;;;;;;;15.32;13.45;;;20.90;1.00;;;;;;7366862;19;20024;-70
2022/08/19 00:34:01;;;;;;;15.68;13.50;;;20.90;1.00;;;;;;7367486;19;20015;-70
2022/08/19 00:36:32;;;;;;;17.20;13.57;;;20.80;1.00;;;;;;7363924;19;20014;-70
2022/08/19 00:39:06;;;;;;;14.95;13.10;;;20.90;1.00;;;;;;7391033;19;20026;-69
2022/08/19 00:41:36;;;;;;;16.08;13.48;;;20.90;1.00;;;;;;7365974;19;20012;-69
2022/08/19 00:44:10;;;;;;;14.77;13.18;;;21.00;1.00;;;;;;7367726;19;20014;-69
2022/08/19 00:46:44;;;;;;;15.40;13.25;;;20.80;1.00;;;;;;7360412;19;20526;-69
2022/08/19 00:49:30;;;;;;;14.95;12.75;;;20.80;1.00;;;;;;7368504;19;20026;-69
2022/08/19 00:52:03;;;;;;;15.95;12.73;;;20.80;1.00;;;;;;7367979;19;20029;-70
2022/08/19 00:54:36;;;;;;;16.03;13.10;;;20.80;1.00;;;;;;7367807;19;20339;-69
2022/08/19 00:57:10;;;;;;;15.00;13.02;;;20.80;1.00;;;;;;7381865;19;20347;-70
2022/08/19 00:59:41;;;;;;;20.08;14.60;;;20.80;1.00;;;;;;7364697;19;20013;-70
2022/08/19 01:02:32;;;;;;;18.30;12.88;;;20.90;1.00;;;;;;7367561;19;20018;-70
2022/08/19 01:05:03;;;;;;;16.77;13.27;;;20.80;1.00;;;;;;7366313;19;20063;-70
2022/08/19 01:07:33;;;;;;;15.05;13.25;;;20.80;1.00;;;;;;7361886;19;20097;-69
2022/08/19 01:10:13;;;;;;;19.23;13.85;;;20.80;1.00;;;;;;7365790;19;20018;-70
2022/08/19 01:12:43;;;;;;;18.42;13.18;;;20.80;1.00;;;;;;7367416;19;20011;-70
2022/08/19 01:15:16;;;;;;;14.13;12.63;;;20.80;1.00;;;;;;7389709;19;20015;-70
2022/08/19 01:17:47;;;;;;;18.67;14.10;;;20.90;1.00;;;;;;7359737;19;20013;-69
2022/08/19 01:20:20;;;;;;;15.25;13.55;;;20.80;1.00;;;;;;7363072;19;20470;-70
2022/08/19 01:22:55;;;;;;;16.33;13.43;;;20.80;1.00;;;;;;7366492;19;20010;-70
2022/08/19 01:25:29;;;;;;;18.77;13.90;;;20.80;1.00;;;;;;7366871;19;20011;-69
2022/08/19 01:27:59;;;;;;;19.70;14.40;;;20.70;1.00;;;;;;7362558;19;20015;-70
2022/08/19 01:30:40;;;;;;;16.23;13.27;;;20.70;1.00;;;;;;7364598;19;20022;-69
2022/08/19 01:33:13;;;;;;;19.30;14.67;;;20.70;1.00;;;;;;7388255;19;20018;-70
2022/08/19 01:35:44;;;;;;;17.65;14.48;;;20.60;1.00;;;;;;7366290;19;20010;-70
2022/08/19 01:38:24;;;;;;;20.65;14.23;;;20.60;1.00;;;;;;7361462;19;20757;-70
2022/08/19 01:40:54;;;;;;;16.55;13.25;;;20.60;1.00;;;;;;7362365;19;20081;-70
2022/08/19 01:43:23;;;;;;;15.88;13.38;;;20.60;1.00;;;;;;7366039;19;20025;-70
2022/08/19 01:45:53;;;;;;;18.55;15.23;;;20.60;1.00;;;;;;7365600;19;20014;-70
2022/08/19 01:48:23;;;;;;;18.27;14.60;;;20.60;1.00;;;;;;7362056;19;20067;-70
2022/08/19 01:50:53;;;;;;;18.17;15.05;;;20.60;1.00;;;;;;7385967;19;20014;-71
2022/08/19 01:53:26;;;;;;;20.58;15.60;;;20.50;1.00;;;;;;7364650;19;20013;-69
2022/08/19 01:56:02;;;;;;;19.38;14.57;;;20.60;1.00;;;;;;7364499;19;20023;-69
2022/08/19 01:58:36;;;;;;;19.45;14.85;;;20.60;1.00;;;;;;7362433;19;20340;-70
2022/08/19 02:01:07;;;;;;;19.90;15.40;;;20.50;1.00;;;;;;7360927;19;20011;-70
2022/08/19 02:03:37;;;;;;;19.80;14.85;;;20.40;1.00;;;;;;7364290;19;20621;-70
2022/08/19 02:06:08;;;;;;;19.42;15.38;;;20.50;1.00;;;;;;7385481;19;20014;-70
2022/08/19 02:08:42;;;;;;;23.85;17.08;;;20.50;1.00;;;;;;7363623;19;20022;-70
2022/08/19 02:11:23;;;;;;;19.63;15.45;;;20.50;1.00;;;;;;7362174;19;20522;-70
2022/08/19 02:13:53;;;;;;;20.70;15.90;;;20.50;1.00;;;;;;7365105;19;20057;-70
2022/08/19 02:16:23;;;;;;;18.58;15.23;;;20.40;1.00;;;;;;7360885;19;20010;-70
2022/08/19 02:18:54;;;;;;;22.73;16.85;;;20.50;1.00;;;;;;7363381;19;20035;-70
2022/08/19 02:21:25;;;;;;;21.33;16.08;;;20.40;1.00;;;;;;7361954;19;20466;-70
2022/08/19 02:23:58;;;;;;;22.30;15.82;;;20.40;1.00;;;;;;7387042;19;20014;-69
2022/08/19 02:26:28;;;;;;;23.85;17.73;;;20.40;1.00;;;;;;7359937;19;20017;-69
2022/08/19 02:29:00;;;;;;;20.08;15.98;;;20.40;1.00;;;;;;7362589;19;20006;-69
2022/08/19 02:31:30;;;;;;;20.95;16.48;;;20.30;1.00;;;;;;7362405;19;20011;-69
2022/08/19 02:34:00;;;;;;;22.38;17.55;;;20.30;1.00;;;;;;7364432;19;20014;-68
2022/08/19 02:36:30;;;;;;;22.67;16.83;;;20.30;1.00;;;;;;7360205;19;21229;-69
2022/08/19 02:39:00;;;;;;;21.33;16.67;;;20.20;1.00;;;;;;7385201;19;20014;-69
2022/08/19 02:41:33;;;;;;;23.48;17.65;;;20.30;1.00;;;;;;7360487;19;20421;-70
2022/08/19 02:44:06;;;;;;;23.08;17.38;;;20.30;1.00;;;;;;7363077;19;20121;-70
2022/08/19 02:46:56;;;;;;;23.95;17.55;;;20.20;1.00;;;;;;7356270;19;20010;-70
2022/08/19 02:49:26;;;;;;;19.83;17.38;;;20.20;1.00;;;;;;7363603;19;20017;-69
2022/08/19 02:51:56;;;;;;;25.77;18.58;;;20.20;1.00;;;;;;7364653;19;20010;-70
2022/08/19 02:54:28;;;;;;;27.45;19.08;;;20.20;1.00;;;;;;7363518;19;20483;-70
2022/08/19 02:56:58;;;;;;;27.33;19.08;;;20.10;1.00;;;;;;7377476;19;20021;-70
2022/08/19 02:59:28;;;;;;;23.77;18.00;;;20.20;1.00;;;;;;7362308;19;20002;-69
2022/08/19 03:01:58;;;;;;;21.30;17.05;;;20.20;1.00;;;;;;7363843;19;20013;-69
2022/08/19 03:04:29;;;;;;;21.95;17.85;;;20.10;1.00;;;;;;7363136;19;20106;-70
2022/08/19 03:06:59;;;;;;;24.05;18.15;;;20.20;1.00;;;;;;7357916;19;20073;-69
2022/08/19 03:09:42;;;;;;;22.67;18.00;;;20.20;1.00;;;;;;7362017;19;20024;-70
2022/08/19 03:12:12;;;;;;;25.10;18.55;;;20.00;1.00;;;;;;7385454;19;20015;-70
2022/08/19 03:14:42;;;;;;;24.92;19.90;;;20.00;1.00;;;;;;7363171;19;20010;-70
2022/08/19 03:17:12;;;;;;;25.48;19.38;;;19.90;1.70;;;;;;7356137;19;20097;-70
2022/08/19 03:19:42;;;;;;;24.77;19.40;;;19.80;3.40;;;;;;7360707;19;20017;-70
2022/08/19 03:22:12;;;;;;;23.20;19.50;;;19.80;4.30;;;;;;7363470;19;20130;-70
2022/08/19 03:24:45;;;;;;;26.27;19.58;;;19.70;4.40;;;;;;7363261;19;20505;-70
2022/08/19 03:27:16;;;;;;;25.88;20.52;;;19.80;5.90;;;;;;7376930;19;20037;-70
2022/08/19 03:29:46;;;;;;;28.58;21.38;;;19.70;6.40;;;;;;7360329;19;20014;-70
2022/08/19 03:32:18;;;;;;;28.23;21.20;;;19.70;6.90;;;;;;7363078;19;20127;-70
2022/08/19 03:35:02;;;;;;;25.17;20.37;;;19.60;7.40;;;;;;7362616;19;20011;-70
2022/08/19 03:37:32;;;;;;;27.73;21.40;;;19.50;6.80;;;;;;7357292;19;20844;-70
2022/08/19 03:40:05;;;;;;;28.55;21.00;;;19.50;7.10;;;;;;7360553;19;20081;-70
2022/08/19 03:42:35;;;;;;;27.30;21.92;;;19.50;8.40;;;;;;7361009;19;20377;-70
2022/08/19 03:45:18;;;;;;;26.17;21.48;;;19.50;8.10;;;;;;7363027;19;20010;-71
2022/08/19 03:47:48;;;;;;;30.52;24.17;;;19.50;7.50;;;;;;7376577;19;20010;-70
2022/08/19 03:50:18;;;;;;;26.52;21.00;;;19.50;7.20;;;;;;7360439;19;20113;-70
2022/08/19 03:52:52;;;;;;;26.88;22.25;;;19.50;7.80;;;;;;7359789;19;20050;-70
2022/08/19 03:55:25;;;;;;;27.40;22.70;;;19.50;7.20;;;;;;7362112;19;20020;-69
2022/08/19 03:57:55;;;;;;;31.58;23.83;;;19.50;7.00;;;;;;7353147;19;20078;-69
2022/08/19 04:00:28;;;;;;;25.85;21.17;;;19.50;6.80;;;;;;7360734;19;20093;-69
2022/08/19 04:02:57;;;;;;;26.02;22.20;;;19.50;6.80;;;;;;7381461;19;20014;-69
2022/08/19 04:05:30;;;;;;;27.70;23.38;;;19.60;6.70;;;;;;7361801;19;20010;-69
2022/08/19 04:08:00;;;;;;;27.35;21.85;;;19.60;6.30;;;;;;7356453;19;20006;-70
2022/08/19 04:10:33;;;;;;;27.90;22.70;;;19.60;5.90;;;;;;7359545;19;20015;-69
2022/08/19 04:13:03;;;;;;;31.08;22.40;;;19.60;5.20;;;;;;7361567;19;20751;-69
2022/08/19 04:15:39;;;;;;;28.48;23.67;;;19.60;5.40;;;;;;7361703;19;20086;-70
2022/08/19 04:18:09;;;;;;;28.95;22.55;;;19.60;5.50;;;;;;7377674;19;20021;-69
2022/08/19 04:20:48;;;;;;;29.02;22.67;;;19.60;5.80;;;;;;7359516;19;20013;-70
2022/08/19 04:23:18;;;;;;;27.90;22.10;;;19.60;5.80;;;;;;7360910;19;20007;-69
2022/08/19 04:25:51;;;;;;;28.88;22.52;;;19.60;5.00;;;;;;7359888;19;20018;-70
2022/08/19 04:28:21;;;;;;;27.35;21.80;;;19.60;4.80;;;;;;7355000;19;20105;-69
2022/08/19 04:30:58;;;;;;;27.67;22.33;;;19.60;5.10;;;;;;7358059;19;20007;-69
2022/08/19 04:33:28;;;;;;;32.25;24.27;;;19.60;4.80;;;;;;7361243;19;20010;-70
2022/08/19 04:35:58;;;;;;;27.65;22.02;;;19.60;4.90;;;;;;7382287;19;20082;-70
2022/08/19 04:38:28;;;;;;;26.45;21.58;;;19.60;4.50;;;;;;7356376;19;20012;-70
2022/08/19 04:43:44;;;;;;;28.80;22.67;;;19.60;4.70;;;;;;7360822;19;20010;-70
2022/08/19 04:46:16;;;;;;;28.50;21.48;;;19.50;4.70;;;;;;7357543;19;20010;-70
2022/08/19 04:49:08;;;;;;;30.20;22.52;;;19.60;5.00;;;;;;7357159;19;20014;-69
2022/08/19 04:51:44;;;;;;;27.33;22.33;;;19.60;4.90;;;;;;7357331;19;20078;-70
2022/08/19 04:54:14;;;;;;;27.05;22.23;;;19.60;4.80;;;;;;7381309;19;20014;-69
2022/08/19 04:57:05;;;;;;;28.13;23.13;;;19.60;4.60;;;;;;7353632;19;20011;-70
2022/08/19 04:59:35;;;;;;;28.23;22.43;;;19.50;4.70;;;;;;7357067;19;20531;-70
2022/08/19 05:02:06;;;;;;;26.85;23.33;;;19.50;4.70;;;;;;7359374;19;20021;-70
2022/08/19 05:04:38;;;;;;;30.70;23.50;;;19.60;4.30;;;;;;7360009;19;20006;-69
2022/08/19 05:07:09;;;;;;;28.23;22.40;;;19.60;4.40;;;;;;7354090;19;20010;-69
2022/08/19 05:09:39;;;;;;;28.38;23.02;;;19.60;4.40;;;;;;7362985;19;20014;-69
2022/08/19 05:12:30;;;;;;;27.80;22.48;;;19.60;4.10;;;;;;7367554;19;20014;-69
2022/08/19 05:15:00;;;;;;;27.52;22.60;;;19.70;4.00;;;;;;7388743;19;20043;-69
2022/08/19 05:17:30;;;;;;;31.52;21.58;;;19.70;3.80;;;;;;7358332;19;20025;-70
2022/08/19 05:23:00;;;;;;;27.42;22.77;;;19.60;4.00;;;;;;7361263;19;20010;-69
2022/08/19 05:25:41;;;;;;;26.92;22.45;;;19.70;3.90;;;;;;7365329;19;20022;-70
2022/08/19 05:28:15;;;;;;;25.95;22.02;;;19.70;4.40;;;;;;7361419;19;20189;-69
2022/08/19 05:30:45;;;;;;;29.65;22.08;;;19.80;3.10;;;;;;7363567;19;20020;-69
2022/08/19 05:33:16;;;;;;;29.23;23.70;;;19.80;3.60;;;;;;7380588;19;20048;-71
2022/08/19 05:35:48;;;;;;;27.67;22.05;;;19.80;3.50;;;;;;7388022;19;20118;-71
2022/08/19 05:38:18;;;;;;;31.52;23.13;;;19.80;3.30;;;;;;7360852;19;20077;-70
2022/08/19 05:40:49;;;;;;;29.88;22.67;;;19.80;3.20;;;;;;7362586;19;20013;-70
2022/08/19 05:43:21;;;;;;;28.40;23.02;;;19.80;3.10;;;;;;7364413;19;20014;-69
2022/08/19 05:45:51;;;;;;;29.27;22.83;;;19.80;2.90;;;;;;7363524;19;20006;-70
2022/08/19 05:48:21;;;;;;;26.60;22.13;;;19.80;3.20;;;;;;7361404;19;20007;-71
2022/08/19 05:50:52;;;;;;;28.40;23.02;;;19.80;3.60;;;;;;7383679;19;20458;-69
2022/08/19 05:53:22;;;;;;;24.75;21.80;;;19.80;3.40;;;;;;7364998;19;20604;-69
2022/08/19 05:55:51;;;;;;;27.05;21.95;;;19.80;3.50;;;;;;7364985;19;20018;-70
2022/08/19 05:58:24;;;;;;;25.42;22.60;;;19.80;2.90;;;;;;7360911;19;20007;-70
2022/08/19 06:00:56;;;;;;;28.58;23.42;;;19.80;3.20;;;;;;7362550;19;20006;-71
2022/08/19 06:03:27;;;;;;;30.88;23.08;;;19.70;3.20;;;;;;7363439;19;20011;-70
2022/08/19 06:05:58;;;;;;;30.20;23.85;;;19.70;3.50;;;;;;7386894;19;20021;-70
2022/08/19 06:08:29;;;;;;;29.83;24.00;;;19.70;3.70;;;;;;7359863;19;20014;-69
2022/08/19 06:11:16;;;;;;;30.40;24.10;;;19.80;3.20;;;;;;7361341;19;20015;-70
2022/08/19 06:13:52;;;;;;;28.17;24.00;;;19.90;3.20;;;;;;7364992;19;20014;-69
2022/08/19 06:16:31;;;;;;;30.42;23.13;;;19.70;2.90;;;;;;7359930;19;20816;-69
2022/08/19 06:19:03;;;;;;;32.38;24.45;;;19.80;3.20;;;;;;7363282;19;20353;-69
2022/08/19 06:21:33;;;;;;;26.75;22.88;;;19.80;3.30;;;;;;7358865;19;20477;-70
2022/08/19 06:24:03;;;;;;;29.55;23.83;;;19.80;2.70;;;;;;7384135;19;20010;-69
2022/08/19 06:26:34;;;;;;;29.13;23.05;;;19.90;2.90;;;;;;7359054;19;20025;-69
2022/08/19 06:29:07;;;;;;;28.17;23.25;;;19.90;2.40;;;;;;7362420;19;20600;-69
2022/08/19 06:31:38;;;;;;;28.35;23.27;;;19.90;2.40;;;;;;7361144;19;20006;-69
2022/08/19 06:34:08;;;;;;;30.95;22.98;;;19.90;2.40;;;;;;7364476;19;20010;-70
2022/08/19 06:36:41;;;;;;;26.60;23.00;;;19.90;2.20;;;;;;7360978;19;20064;-70
2022/08/19 06:39:13;;;;;;;27.60;22.75;;;20.00;1.60;;;;;;7384399;19;20098;-68
2022/08/19 06:41:45;;;;;;;29.15;22.45;;;20.10;1.90;;;;;;7360045;19;20038;-70
2022/08/19 06:44:26;;;;;;;26.42;21.50;;;20.20;1.00;;;;;;7362688;19;20014;-69
2022/08/19 06:46:56;;;;;;;27.10;21.75;;;20.30;1.00;;;;;;7358849;19;20049;-69
2022/08/19 06:49:30;;;;;;;26.48;21.63;;;20.00;1.30;;;;;;7362532;19;20014;-69
2022/08/19 06:52:02;;;;;;;27.55;23.40;;;20.10;1.60;;;;;;7362776;19;20094;-69
2022/08/19 06:54:33;;;;;;;28.10;23.25;;;20.10;1.50;;;;;;7363125;19;20036;-69
2022/08/19 06:57:16;;;;;;;27.45;23.10;;;20.30;1.50;;;;;;7377179;19;20014;-73
2022/08/19 06:59:48;;;;;;;29.95;21.05;;;20.40;1.00;;;;;;7382934;19;20094;-70
2022/08/19 07:02:18;;;;;;;24.90;20.60;;;20.40;1.00;;;;;;7362555;19;20017;-70
2022/08/19 07:04:48;;;;;;;25.73;21.35;;;20.50;1.00;;;;;;7363450;19;20070;-69
2022/08/19 07:07:23;;;;;;;23.05;20.27;;;20.40;1.00;;;;;;7356011;19;20011;-69
2022/08/19 07:09:53;;;;;;;25.50;21.48;;;20.40;1.00;;;;;;7359680;19;20024;-68
2022/08/19 07:12:32;;;;;;;24.67;20.50;;;20.40;1.00;;;;;;7363691;19;20021;-69
2022/08/19 07:15:09;;;;;;;25.80;20.33;;;20.40;1.00;;;;;;7384466;19;20499;-69
2022/08/19 07:17:40;;;;;;;24.48;19.83;;;20.60;1.00;;;;;;7355261;19;20018;-69
2022/08/19 07:20:12;;;;;;;23.92;21.27;;;20.50;1.00;;;;;;7359656;19;20010;-69
2022/08/19 07:22:42;;;;;;;24.83;21.05;;;20.50;1.00;;;;;;7360814;19;20015;-69
2022/08/19 07:25:13;;;;;;;25.85;20.67;;;20.50;1.00;;;;;;7361933;19;20078;-69
2022/08/19 07:27:44;;;;;;;21.73;18.70;;;20.40;1.00;;;;;;7354941;19;20118;-68
2022/08/19 07:30:19;;;;;;;24.65;20.33;;;20.40;1.00;;;;;;7364910;19;20018;-70
2022/08/19 07:32:52;;;;;;;24.13;19.45;;;20.50;1.00;;;;;;7381095;19;20098;-70
2022/08/19 07:35:21;;;;;;;23.33;19.67;;;20.40;1.00;;;;;;7358951;19;20471;-69
2022/08/19 07:37:52;;;;;;;22.48;18.55;;;20.40;1.00;;;;;;7350091;19;20006;-71
2022/08/19 07:40:23;;;;;;;22.15;18.90;;;20.40;1.00;;;;;;7357381;19;20014;-69
2022/08/19 07:42:53;;;;;;;22.33;18.75;;;20.50;1.00;;;;;;7361078;19;20009;-69
2022/08/19 07:45:26;;;;;;;21.83;18.40;;;20.30;1.00;;;;;;7359183;19;20025;-71
2022/08/19 07:47:56;;;;;;;23.77;18.95;;;20.40;1.00;;;;;;7375871;19;20709;-70
2022/08/19 07:50:26;;;;;;;23.50;18.30;;;20.40;1.00;;;;;;7356706;19;20014;-70
2022/08/19 07:52:56;;;;;;;28.33;18.85;;;20.50;1.00;;;;;;7358873;19;20082;-70
2022/08/19 07:55:28;;;;;;;23.33;18.52;;;20.50;1.00;;;;;;7360918;19;20474;-70
2022/08/19 07:58:12;;;;;;;23.27;17.52;;;20.50;1.00;;;;;;7354703;19;20013;-69
2022/08/19 08:00:47;;;;;;;22.02;17.15;;;20.50;1.00;;;;;;7357170;19;20007;-70
2022/08/19 08:03:18;;;;;;;20.73;18.23;;;20.50;1.00;;;;;;7366005;19;20014;-71
2022/08/19 08:11:19;;;;;;;23.70;20.20;;;20.70;1.00;;;;;;7356071;19;20090;-69
2022/08/19 08:13:51;;;;;;;20.25;16.70;;;20.60;1.00;;;;;;7360525;19;20533;-70
2022/08/19 08:16:37;;;;;;;20.80;17.45;;;20.60;1.00;;;;;;7356299;19;20349;-70
2022/08/19 08:19:17;;;;;;;20.15;17.63;;;20.70;1.00;;;;;;7358481;19;20010;-68
2022/08/19 08:21:56;;;;;;;18.90;16.55;;;20.60;1.00;;;;;;7358482;19;20021;-69
2022/08/19 08:24:27;;;;;;;23.33;17.35;;;20.60;1.00;;;;;;7359004;19;20032;-70
2022/08/19 08:26:58;;;;;;;29.63;23.30;;;20.50;1.00;;;;;;7376770;19;20482;-69
2022/08/19 08:29:29;;;;;;;37.15;26.92;;;20.50;1.00;;;;;;7357484;19;20015;-70
2022/08/19 08:32:06;;;;;;;21.20;17.88;;;20.60;1.00;;;;;;7359860;19;20022;-69
2022/08/19 08:34:43;;;;;;;20.98;17.23;;;20.60;1.00;;;;;;7357971;19;20014;-70
2022/08/19 08:37:16;;;;;;;20.70;16.05;;;20.60;1.00;;;;;;7353257;19;20764;-69
2022/08/19 08:39:46;;;;;;;18.13;16.23;;;20.70;1.00;;;;;;7355823;19;20020;-70
2022/08/19 08:42:21;;;;;;;23.05;16.55;;;20.80;1.00;;;;;;7368960;19;20025;-70
2022/08/19 08:44:56;;;;;;;19.67;15.70;;;20.80;1.00;;;;;;7384154;19;20018;-70
2022/08/19 08:47:52;;;;;;;17.00;14.68;;;20.80;1.00;;;;;;7357307;19;20441;-70
2022/08/19 08:50:28;;;;;;;19.48;15.75;;;20.90;1.00;;;;;;7362609;19;20438;-70
2022/08/19 08:53:00;;;;;;;18.45;15.43;;;20.90;1.00;;;;;;7364633;19;20011;-70
2022/08/19 08:55:32;;;;;;;20.38;15.88;;;20.90;1.00;;;;;;7366604;19;20030;-69
2022/08/19 08:58:08;;;;;;;19.75;16.33;;;21.00;1.00;;;;;;7359667;19;20377;-72
2022/08/19 09:00:43;;;;;;;20.27;16.60;;;21.20;1.00;;;;;;7363068;19;20023;-70
2022/08/19 09:03:22;;;;;;;21.13;16.48;;;21.10;1.00;;;;;;7386314;19;20022;-71
2022/08/19 09:06:02;;;;;;;16.92;15.07;;;21.40;1.00;;;;;;7365193;19;20503;-70
2022/08/19 09:08:47;;;;;;;18.98;15.02;;;21.40;1.00;;;;;;7359889;19;20463;-69
2022/08/19 09:11:22;;;;;;;18.27;16.05;;;21.30;1.00;;;;;;7360737;19;20018;-70
2022/08/19 09:14:21;;;;;;;22.35;15.70;;;21.30;1.00;;;;;;7363752;19;20541;-70
2022/08/19 09:17:12;;;;;;;18.23;15.52;;;21.40;1.00;;;;;;7359832;19;20389;-70
2022/08/19 09:19:54;;;;;;;21.45;14.65;;;21.60;1.00;;;;;;7360704;19;20021;-69
2022/08/19 09:22:26;;;;;;;17.08;13.25;;;21.70;1.00;;;;;;7364823;19;20074;-70
2022/08/19 09:24:57;;;;;;;17.00;14.35;;;21.80;1.00;;;;;;7364849;19;20006;-71
2022/08/19 09:27:29;;;;;;;18.00;14.48;;;21.80;1.00;;;;;;7357044;19;20501;-70
2022/08/19 09:30:14;;;;;;;;;;;21.80;1.00;;;;;;7382626;19;20021;-70
2022/08/19 09:32:45;;;;;;;20.73;13.98;;;21.80;1.00;;;;;;7364568;19;20010;-69
2022/08/19 09:35:17;;;;;;;17.25;13.80;;;21.70;1.00;;;;;;7364068;19;20029;-70
2022/08/19 09:37:48;;;;;;;17.30;14.20;;;21.70;1.00;;;;;;7357346;19;20494;-70
2022/08/19 09:40:28;;;;;;;16.95;13.20;;;21.80;1.00;;;;;;7361742;19;20021;-70
2022/08/19 09:43:02;;;;;;;16.15;13.00;;;21.80;1.00;;;;;;7363528;19;20007;-69
2022/08/19 09:45:38;;;;;;;14.43;12.93;;;21.90;1.00;;;;;;7362743;19;20506;-70
2022/08/19 09:48:08;;;;;;;16.38;13.98;;;21.90;1.00;;;;;;7378451;19;20470;-71
2022/08/19 09:50:50;;;;;;;17.23;13.38;;;21.90;1.00;;;;;;7360361;19;20043;-70
2022/08/19 09:53:22;;;;;;;15.13;13.45;;;22.00;1.00;;;;;;7363442;19;20006;-69
2022/08/19 09:55:54;;;;;;;23.50;14.00;;;22.00;1.00;;;;;;7364447;19;20107;-70
2022/08/19 09:58:27;;;;;;;14.50;12.25;;;21.90;1.00;;;;;;7356446;19;20055;-70
2022/08/19 10:00:58;;;;;;;15.20;13.13;;;21.90;1.00;;;;;;7359264;19;20021;-70
2022/08/19 10:03:29;;;;;;;16.73;12.48;;;22.00;1.00;;;;;;7363114;19;20763;-69
2022/08/19 10:06:04;;;;;;;15.68;12.57;;;22.00;1.00;;;;;;7382735;19;20026;-70
2022/08/19 10:08:43;;;;;;;14.20;12.23;;;22.10;1.00;;;;;;7359483;19;20011;-69
2022/08/19 10:11:20;;;;;;;15.38;11.82;;;21.90;1.00;;;;;;7359135;19;20864;-70
2022/08/19 10:14:10;;;;;;;16.35;12.60;;;22.10;1.00;;;;;;7358594;19;20019;-70
2022/08/19 10:16:41;;;;;;;17.08;13.23;;;22.10;1.00;;;;;;7354905;19;20026;-70
2022/08/19 10:19:11;;;;;;;15.45;13.18;;;22.20;1.00;;;;;;7356915;19;20029;-70
2022/08/19 10:21:45;;;;;;;20.05;12.40;;;22.20;1.00;;;;;;7357152;19;20038;-70
2022/08/19 10:24:17;;;;;;;14.52;11.75;;;22.20;1.00;;;;;;7369938;19;20014;-72
2022/08/19 10:26:48;;;;;;;15.93;12.20;;;22.20;1.00;;;;;;7376041;19;20807;-68
2022/08/19 10:29:28;;;;;;;14.30;12.18;;;22.20;1.00;;;;;;7356767;19;20033;-69
2022/08/19 10:32:02;;;;;;;13.60;10.25;;;22.40;1.00;;;;;;7361262;19;20538;-68
2022/08/19 10:34:33;;;;;;;13.90;11.95;;;22.30;1.00;;;;;;7362684;19;20017;-68
2022/08/19 10:37:06;;;;;;;13.35;10.18;;;22.30;1.00;;;;;;7360322;19;20007;-68
2022/08/19 10:39:39;;;;;;;13.23;10.45;;;22.50;1.00;;;;;;7360210;19;20079;-68
2022/08/19 10:42:13;;;;;;;10.43;9.02;;;22.50;1.00;;;;;;7385241;19;20028;-67
2022/08/19 10:44:43;;;;;;;10.40;8.40;;;22.50;1.00;;;;;;7363022;19;20029;-67
2022/08/19 10:47:14;;;;;;;13.18;8.55;;;22.50;1.00;;;;;;7358287;19;20022;-67
2022/08/19 10:52:43;;;;;;;9.32;7.43;;;22.80;1.00;;;;;;7360407;19;20486;-67
2022/08/19 10:58:03;;;;;;;23.65;7.97;;;22.90;1.00;;;;;;7355179;19;20088;-68
2022/08/19 11:00:33;;;;;;;8.63;7.43;;;23.10;1.00;;;;;;7358687;19;20077;-68
2022/08/19 11:03:03;;;;;;;10.35;7.93;;;23.20;1.00;;;;;;7382260;19;20014;-67
2022/08/19 11:05:33;;;;;;;11.38;7.50;;;23.20;1.00;;;;;;7358855;19;20018;-67
2022/08/19 11:08:12;;;;;;;10.50;8.20;;;23.30;1.00;;;;;;7353521;19;20025;-67
2022/08/19 11:10:53;;;;;;;9.20;7.43;;;23.50;1.00;;;;;;7358132;19;20011;-67
2022/08/19 11:13:24;;;;;;;11.93;8.25;;;23.60;1.00;;;;;;7360279;19;20089;-66
2022/08/19 11:16:02;;;;;;;8.27;7.40;;;23.70;1.00;;;;;;7358740;19;20020;-68
2022/08/19 11:18:38;;;;;;;10.65;7.43;;;23.60;1.00;;;;;;7353617;19;20020;-67
2022/08/19 11:21:16;;;;;;;8.75;7.90;;;23.70;1.00;;;;;;7377351;19;20098;-67
2022/08/19 11:23:51;;;;;;;12.93;8.00;;;23.60;1.00;;;;;;7356285;19;20021;-67
2022/08/19 11:26:23;;;;;;;11.43;7.95;;;23.50;1.00;;;;;;7353140;19;20089;-67
2022/08/19 11:28:54;;;;;;;10.57;8.10;;;23.30;1.00;;;;;;7353992;19;20051;-67
2022/08/19 11:31:26;;;;;;;9.98;7.90;;;23.20;1.00;;;;;;7356027;19;20104;-66
2022/08/19 11:33:59;;;;;;;8.60;7.70;;;23.30;1.00;;;;;;7357688;19;20031;-67
2022/08/19 11:36:31;;;;;;;11.13;8.30;;;23.30;1.00;;;;;;7353787;19;20014;-66
2022/08/19 11:39:05;;;;;;;8.40;7.55;;;23.30;1.00;;;;;;7374920;19;20769;-67
2022/08/19 11:41:35;;;;;;;9.88;8.48;;;23.20;1.00;;;;;;7354249;19;20014;-68
2022/08/19 11:44:06;;;;;;;10.43;8.30;;;23.30;1.00;;;;;;7355849;19;20335;-67
2022/08/19 11:46:37;;;;;;;9.95;8.32;;;23.20;1.00;;;;;;7353463;19;20636;-67
2022/08/19 11:49:09;;;;;;;12.82;7.70;;;23.30;1.00;;;;;;7352743;19;20014;-66
2022/08/19 11:51:44;;;;;;;11.15;8.95;;;23.30;1.00;;;;;;7356007;19;20014;-67
2022/08/19 11:54:18;;;;;;;8.95;8.00;;;23.40;1.00;;;;;;7378206;19;20018;-67
2022/08/19 11:56:48;;;;;;;9.15;8.25;;;23.40;1.00;;;;;;7352398;19;20571;-66
2022/08/19 11:59:18;;;;;;;11.13;8.68;;;23.40;1.00;;;;;;7356225;19;20017;-67
2022/08/19 12:01:48;;;;;;;12.77;8.35;;;23.50;1.00;;;;;;7359486;19;20096;-67
2022/08/19 12:04:18;;;;;;;10.82;7.70;;;23.60;1.00;;;;;;7359020;19;20050;-66
2022/08/19 12:06:49;;;;;;;10.05;8.05;;;23.70;1.00;;;;;;7357852;19;20837;-67
2022/08/19 12:09:22;;;;;;;10.05;8.38;;;23.70;1.00;;;;;;7357880;19;20331;-68
2022/08/19 12:11:52;;;;;;;10.30;8.13;;;23.80;1.00;;;;;;7378843;19;20024;-66
2022/08/19 12:14:22;;;;;;;9.07;8.18;;;23.90;1.00;;;;;;7357848;19;20097;-66
2022/08/19 12:16:53;;;;;;;9.77;8.15;;;24.10;1.00;;;;;;7353248;19;20127;-67
2022/08/19 12:19:24;;;;;;;9.75;7.60;;;23.90;1.00;;;;;;7358217;19;20010;-67
2022/08/19 12:21:56;;;;;;;13.38;8.13;;;24.00;1.00;;;;;;7365918;19;20030;-68
2022/08/19 12:24:29;;;;;;;9.23;8.02;;;24.20;1.00;;;;;;7365622;19;20395;-66
2022/08/19 12:27:01;;;;;;;10.18;8.02;;;24.30;1.00;;;;;;7383096;19;20028;-68
2022/08/19 12:29:33;;;;;;;10.57;7.82;;;24.30;1.00;;;;;;7360125;19;20395;-67
2022/08/19 12:32:03;;;;;;;9.98;8.30;;;24.20;1.00;;;;;;7365207;19;20010;-67
2022/08/19 12:34:36;;;;;;;8.98;7.53;;;24.20;1.00;;;;;;7359823;19;20021;-67
2022/08/19 12:37:08;;;;;;;8.48;7.57;;;24.20;1.00;;;;;;7358138;19;20007;-67
2022/08/19 12:39:43;;;;;;;7.80;6.97;;;24.20;1.00;;;;;;7358051;19;20007;-67
2022/08/19 12:42:15;;;;;;;7.68;6.97;;;24.10;1.00;;;;;;7382632;19;20025;-67
2022/08/19 12:44:46;;;;;;;7.63;6.80;;;24.00;1.00;;;;;;7359346;19;20014;-66
2022/08/19 12:47:16;;;;;;;8.32;7.00;;;23.90;1.00;;;;;;7355188;19;20047;-67
2022/08/19 12:49:48;;;;;;;10.38;7.35;;;23.80;1.00;;;;;;7355104;19;20090;-66
2022/08/19 12:52:26;;;;;;;8.90;7.00;;;23.90;1.00;;;;;;7361574;19;20010;-66
2022/08/19 12:55:00;;;;;;;9.50;7.65;;;23.80;1.00;;;;;;7360658;19;20051;-66
2022/08/19 12:57:31;;;;;;;7.50;6.60;;;23.80;1.00;;;;;;7358444;19;20035;-67
2022/08/19 13:00:06;;;;;;;7.50;6.28;;;23.80;1.00;;;;;;7380983;19;20260;-66
2022/08/19 13:02:37;;;;;;;6.53;5.90;;;23.70;1.00;;;;;;7363909;19;20014;-66
2022/08/19 13:05:11;;;;;;;6.95;6.25;;;23.70;1.00;;;;;;7363508;19;20544;-66
2022/08/19 13:07:43;;;;;;;6.65;5.95;;;23.70;1.00;;;;;;7356740;19;20549;-67
2022/08/19 13:10:20;;;;;;;7.70;6.18;;;23.70;1.00;;;;;;7360250;19;20039;-65
2022/08/19 13:12:52;;;;;;;8.10;6.07;;;23.60;1.00;;;;;;7363037;19;20006;-66
2022/08/19 13:15:24;;;;;;;6.55;5.88;;;23.60;1.00;;;;;;7360977;19;20014;-67
2022/08/19 13:17:56;;;;;;;9.07;5.75;;;23.60;1.00;;;;;;7375410;19;20277;-66
2022/08/19 13:20:27;;;;;;;7.18;6.47;;;23.60;1.00;;;;;;7357886;19;20018;-66
2022/08/19 13:22:58;;;;;;;12.93;7.18;;;23.50;1.00;;;;;;7360087;19;20070;-66
2022/08/19 13:25:30;;;;;;;6.75;5.80;;;23.40;1.00;;;;;;7360682;19;20022;-66
2022/08/19 13:28:01;;;;;;;8.52;6.35;;;23.30;1.00;;;;;;7353270;19;20015;-66